createdAt,value
2018-02-11T00:00:52.717Z,67.90
2018-02-11T00:01:58.245Z,70.60
2018-02-11T00:03:03.777Z,63.70
2018-02-11T00:04:09.301Z,69.80
2018-02-11T00:05:14.838Z,66.80
2018-02-11T00:06:20.360Z,72.50
2018-02-11T00:07:25.889Z,66.30
2018-02-11T00:08:31.416Z,64.60
2018-02-11T00:09:36.953Z,74.90
2018-02-11T00:10:42.481Z,63.30
2018-02-11T00:11:48.009Z,64.20
2018-02-11T00:12:53.536Z,73.90
2018-02-11T00:13:59.071Z,72.70
2018-02-11T00:15:04.595Z,74.50
2018-02-11T00:16:10.126Z,67.00
2018-02-11T00:17:15.664Z,62.30
2018-02-11T00:18:21.185Z,63.60
2018-02-11T00:19:26.709Z,74.40
2018-02-11T00:20:32.239Z,67.00
2018-02-11T00:21:37.768Z,69.60
2018-02-11T00:22:43.311Z,69.50
2018-02-11T00:23:48.830Z,57.10
2018-02-11T00:24:54.375Z,72.80
2018-02-11T00:25:59.888Z,63.60
2018-02-11T00:27:05.416Z,73.50
2018-02-11T00:28:10.947Z,61.40
2018-02-11T00:29:16.483Z,71.60
2018-02-11T00:30:22.024Z,63.50
2018-02-11T00:31:27.537Z,71.30
2018-02-11T00:32:33.068Z,65.40
2018-02-11T00:33:38.598Z,68.20
2018-02-11T00:34:44.122Z,64.00
2018-02-11T00:35:49.657Z,66.80
2018-02-11T00:36:55.182Z,69.50
2018-02-11T00:38:00.711Z,65.50
2018-02-11T00:39:06.239Z,65.80
2018-02-11T00:40:11.771Z,67.60
2018-02-11T00:41:17.305Z,69.20
2018-02-11T00:42:22.830Z,58.90
2018-02-11T00:43:28.361Z,64.70
2018-02-11T00:44:33.889Z,70.20
2018-02-11T00:45:39.420Z,70.00
2018-02-11T00:46:44.946Z,66.50
2018-02-11T00:47:50.475Z,68.10
2018-02-11T00:48:56.012Z,72.90
2018-02-11T00:50:01.540Z,65.60
2018-02-11T00:51:07.069Z,63.60
2018-02-11T00:52:12.602Z,69.00
2018-02-11T00:53:18.128Z,54.50
2018-02-11T00:54:23.650Z,71.00
2018-02-11T00:55:29.187Z,68.10
2018-02-11T00:56:34.710Z,71.20
2018-02-11T00:57:40.240Z,62.90
2018-02-11T00:58:45.812Z,73.70
2018-02-11T00:59:51.298Z,72.80
2018-02-11T01:00:56.828Z,64.00
2018-02-11T01:02:02.366Z,72.50
2018-02-11T01:03:07.892Z,77.00
2018-02-11T01:04:13.432Z,66.50
2018-02-11T01:05:18.946Z,74.70
2018-02-11T01:06:24.481Z,57.70
2018-02-11T01:07:30.003Z,62.00
2018-02-11T01:08:35.540Z,74.40
2018-02-11T01:09:41.068Z,65.80
2018-02-11T01:10:46.595Z,66.90
2018-02-11T01:11:52.128Z,66.20
2018-02-11T01:12:57.652Z,72.80
2018-02-11T01:14:03.183Z,70.40
2018-02-11T01:15:08.710Z,71.90
2018-02-11T01:16:14.240Z,74.40
2018-02-11T01:17:19.767Z,77.20
2018-02-11T01:18:25.300Z,76.20
2018-02-11T01:19:30.830Z,70.30
2018-02-11T01:20:36.357Z,77.20
2018-02-11T01:21:41.885Z,75.50
2018-02-11T01:22:47.419Z,71.70
2018-02-11T01:23:52.949Z,70.60
2018-02-11T01:24:58.474Z,71.20
2018-02-11T01:26:04.008Z,67.30
2018-02-11T01:27:09.539Z,69.10
2018-02-11T01:28:15.076Z,68.40
2018-02-11T01:29:20.594Z,69.90
2018-02-11T01:30:26.121Z,76.00
2018-02-11T01:31:31.651Z,77.20
2018-02-11T01:32:37.185Z,64.60
2018-02-11T01:33:42.712Z,66.30
2018-02-11T01:34:48.243Z,85.40
2018-02-11T01:35:53.771Z,63.40
2018-02-11T01:36:59.303Z,68.80
2018-02-11T01:38:04.828Z,74.40
2018-02-11T01:39:10.361Z,66.60
2018-02-11T01:40:15.886Z,66.00
2018-02-11T01:41:21.422Z,68.00
2018-02-11T01:42:26.954Z,78.60
2018-02-11T01:43:32.477Z,76.20
2018-02-11T01:44:38.004Z,74.30
2018-02-11T01:45:43.532Z,65.50
2018-02-11T01:46:49.062Z,68.70
2018-02-11T01:47:54.592Z,68.70
2018-02-11T01:49:00.122Z,74.20
2018-02-11T01:50:05.652Z,68.60
2018-02-11T01:51:11.182Z,66.00
2018-02-11T01:52:16.710Z,70.80
2018-02-11T01:53:22.237Z,73.30
2018-02-11T01:54:27.772Z,66.50
2018-02-11T01:55:33.303Z,66.60
2018-02-11T01:56:38.831Z,78.40
2018-02-11T01:57:44.358Z,69.80
2018-02-11T01:58:49.887Z,70.80
2018-02-11T01:59:55.412Z,64.90
2018-02-11T02:01:00.946Z,74.80
2018-02-11T02:02:06.470Z,66.00
2018-02-11T02:03:12.002Z,68.20
2018-02-11T02:04:17.542Z,83.50
2018-02-11T02:05:23.060Z,66.80
2018-02-11T02:06:28.588Z,71.70
2018-02-11T02:07:34.119Z,70.30
2018-02-11T02:08:39.699Z,60.00
2018-02-11T02:09:45.176Z,65.80
2018-02-11T02:10:50.707Z,74.80
2018-02-11T02:11:56.240Z,63.40
2018-02-11T02:13:01.764Z,64.10
2018-02-11T02:14:07.301Z,67.60
2018-02-11T02:15:12.822Z,66.00
2018-02-11T02:16:18.352Z,73.80
2018-02-11T02:17:23.879Z,67.40
2018-02-11T02:18:29.407Z,65.40
2018-02-11T02:19:34.942Z,67.20
2018-02-11T02:20:40.471Z,66.00
2018-02-11T02:21:46.000Z,63.00
2018-02-11T02:22:51.526Z,64.30
2018-02-11T02:23:57.054Z,68.70
2018-02-11T02:25:02.591Z,73.20
2018-02-11T02:26:08.113Z,62.30
2018-02-11T02:27:13.645Z,72.60
2018-02-11T02:28:19.172Z,68.80
2018-02-11T02:29:24.702Z,65.30
2018-02-11T02:30:30.230Z,68.70
2018-02-11T02:31:35.762Z,66.20
2018-02-11T02:32:41.287Z,67.10
2018-02-11T02:33:46.816Z,81.30
2018-02-11T02:34:52.341Z,72.40
2018-02-11T02:35:57.870Z,75.30
2018-02-11T02:37:03.402Z,70.00
2018-02-11T02:38:08.931Z,80.20
2018-02-11T02:39:14.459Z,75.20
2018-02-11T02:40:19.990Z,72.00
2018-02-11T02:41:25.520Z,65.70
2018-02-11T02:42:31.048Z,68.30
2018-02-11T02:43:36.577Z,65.50
2018-02-11T02:44:42.107Z,64.80
2018-02-11T02:45:47.636Z,67.50
2018-02-11T02:46:53.161Z,75.70
2018-02-11T02:47:58.693Z,64.50
2018-02-11T02:49:04.223Z,61.70
2018-02-11T02:50:09.759Z,66.10
2018-02-11T02:51:15.277Z,67.50
2018-02-11T02:52:20.807Z,76.30
2018-02-11T02:53:26.343Z,66.30
2018-02-11T02:54:31.871Z,62.50
2018-02-11T02:55:37.398Z,66.30
2018-02-11T02:56:42.921Z,65.60
2018-02-11T02:57:48.451Z,61.60
2018-02-11T02:58:53.980Z,67.20
2018-02-11T02:59:59.511Z,64.40
2018-02-11T03:01:05.037Z,68.30
2018-02-11T03:02:10.565Z,67.00
2018-02-11T03:03:16.096Z,68.60
2018-02-11T03:04:21.633Z,74.20
2018-02-11T03:05:27.150Z,63.50
2018-02-11T03:06:32.681Z,66.30
2018-02-11T03:07:38.209Z,64.70
2018-02-11T03:08:43.739Z,59.40
2018-02-11T03:09:49.266Z,63.00
2018-02-11T03:10:54.797Z,65.80
2018-02-11T03:12:00.332Z,58.20
2018-02-11T03:13:05.857Z,63.00
2018-02-11T03:14:11.391Z,60.00
2018-02-11T03:15:16.912Z,67.00
2018-02-11T03:16:22.441Z,59.90
2018-02-11T03:17:27.967Z,64.70
2018-02-11T03:18:33.501Z,66.60
2018-02-11T03:19:39.036Z,63.00
2018-02-11T03:20:44.554Z,62.40
2018-02-11T03:21:50.089Z,65.40
2018-02-11T03:22:55.617Z,67.30
2018-02-11T03:24:01.145Z,55.90
2018-02-11T03:25:06.678Z,60.30
2018-02-11T03:26:12.202Z,60.80
2018-02-11T03:27:17.732Z,60.70
2018-02-11T03:28:23.261Z,66.30
2018-02-11T03:29:28.790Z,59.40
2018-02-11T03:30:34.315Z,66.50
2018-02-11T03:31:39.845Z,61.90
2018-02-11T03:32:45.375Z,60.20
2018-02-11T03:33:50.907Z,62.50
2018-02-11T03:34:56.433Z,59.90
2018-02-11T03:36:01.960Z,55.90
2018-02-11T03:37:07.490Z,59.70
2018-02-11T03:38:13.023Z,60.60
2018-02-11T03:39:18.549Z,61.30
2018-02-11T03:40:24.079Z,55.70
2018-02-11T03:41:29.611Z,60.10
2018-02-11T03:42:35.137Z,51.60
2018-02-11T03:43:40.665Z,51.00
2018-02-11T03:44:46.188Z,59.20
2018-02-11T03:45:51.720Z,60.70
2018-02-11T03:46:57.254Z,52.10
2018-02-11T03:48:02.780Z,57.50
2018-02-11T03:49:08.312Z,51.30
2018-02-11T03:50:13.841Z,57.50
2018-02-11T03:51:19.367Z,51.00
2018-02-11T03:52:24.892Z,50.40
2018-02-11T03:53:30.452Z,53.80
2018-02-11T03:54:35.952Z,49.80
2018-02-11T03:55:41.479Z,56.70
2018-02-11T03:56:47.016Z,54.70
2018-02-11T03:57:52.536Z,56.80
2018-02-11T03:58:58.070Z,49.10
2018-02-11T04:00:03.598Z,49.80
2018-02-11T04:01:09.127Z,48.50
2018-02-11T04:02:14.654Z,47.30
2018-02-11T04:03:20.181Z,49.40
2018-02-11T04:04:25.712Z,47.10
2018-02-11T04:05:31.237Z,50.70
2018-02-11T04:06:36.769Z,48.90
2018-02-11T04:07:42.295Z,47.50
2018-02-11T04:08:47.832Z,47.50
2018-02-11T04:09:53.362Z,45.00
2018-02-11T04:10:58.887Z,45.00
2018-02-11T04:12:04.424Z,46.60
2018-02-11T04:13:09.940Z,45.00
2018-02-11T04:14:15.472Z,51.60
2018-02-11T04:15:20.997Z,46.80
2018-02-11T04:16:26.531Z,46.50
2018-02-11T04:17:32.058Z,47.80
2018-02-11T04:18:37.587Z,46.20
2018-02-11T04:19:43.117Z,42.60
2018-02-11T04:20:48.650Z,46.50
2018-02-11T04:21:54.168Z,42.00
2018-02-11T04:22:59.702Z,46.10
2018-02-11T04:24:05.232Z,44.30
2018-02-11T04:25:10.761Z,44.90
2018-02-11T04:26:16.294Z,47.70
2018-02-11T04:27:21.821Z,42.80
2018-02-11T04:28:27.346Z,44.00
2018-02-11T04:29:32.885Z,47.80
2018-02-11T04:30:38.401Z,42.50
2018-02-11T04:31:43.928Z,43.00
2018-02-11T04:32:49.462Z,45.70
2018-02-11T04:33:54.988Z,45.00
2018-02-11T04:35:00.521Z,49.30
2018-02-11T04:36:06.047Z,45.50
2018-02-11T04:37:11.576Z,42.00
2018-02-11T04:38:17.105Z,41.80
2018-02-11T04:39:22.631Z,41.00
2018-02-11T04:40:28.161Z,44.20
2018-02-11T04:41:33.691Z,38.70
2018-02-11T04:42:39.217Z,40.60
2018-02-11T04:43:44.743Z,43.10
2018-02-11T04:44:50.281Z,37.00
2018-02-11T04:45:55.807Z,39.90
2018-02-11T04:47:01.336Z,38.80
2018-02-11T04:48:06.864Z,36.60
2018-02-11T04:49:12.392Z,40.60
2018-02-11T04:50:17.922Z,36.20
2018-02-11T04:51:23.448Z,38.30
2018-02-11T04:52:28.976Z,37.60
2018-02-11T04:53:34.511Z,45.40
2018-02-11T04:54:40.034Z,37.20
2018-02-11T04:55:45.567Z,39.90
2018-02-11T04:56:51.093Z,39.40
2018-02-11T04:57:56.620Z,38.90
2018-02-11T04:59:02.157Z,35.30
2018-02-11T05:00:07.688Z,36.00
2018-02-11T05:01:13.208Z,37.10
2018-02-11T05:02:18.737Z,37.40
2018-02-11T05:03:24.270Z,35.40
2018-02-11T05:04:29.802Z,34.10
2018-02-11T05:05:35.322Z,34.30
2018-02-11T05:06:40.852Z,34.60
2018-02-11T05:07:46.383Z,35.10
2018-02-11T05:08:51.909Z,36.30
2018-02-11T05:09:57.442Z,33.60
2018-02-11T05:11:02.971Z,32.60
2018-02-11T05:12:08.498Z,38.30
2018-02-11T05:13:14.026Z,35.30
2018-02-11T05:14:19.555Z,38.50
2018-02-11T05:15:25.088Z,36.80
2018-02-11T05:16:30.609Z,38.40
2018-02-11T05:17:36.147Z,34.10
2018-02-11T05:18:41.672Z,34.10
2018-02-11T05:19:47.196Z,34.60
2018-02-11T05:20:52.730Z,35.70
2018-02-11T05:21:58.255Z,41.30
2018-02-11T05:23:03.788Z,42.00
2018-02-11T05:24:09.310Z,31.10
2018-02-11T05:25:14.845Z,33.00
2018-02-11T05:26:20.374Z,36.40
2018-02-11T05:27:25.902Z,34.60
2018-02-11T05:28:31.433Z,34.00
2018-02-11T05:29:36.966Z,33.90
2018-02-11T05:30:42.485Z,32.30
2018-02-11T05:31:48.019Z,34.50
2018-02-11T05:32:53.543Z,35.50
2018-02-11T05:33:59.070Z,33.80
2018-02-11T05:35:04.602Z,30.00
2018-02-11T05:36:10.129Z,32.00
2018-02-11T05:37:15.660Z,33.30
2018-02-11T05:38:21.194Z,31.40
2018-02-11T05:39:26.712Z,36.00
2018-02-11T05:40:32.242Z,32.80
2018-02-11T05:41:37.777Z,35.10
2018-02-11T05:42:43.311Z,33.60
2018-02-11T05:43:48.837Z,33.50
2018-02-11T05:44:54.368Z,35.50
2018-02-11T05:45:59.890Z,31.40
2018-02-11T05:47:05.418Z,33.90
2018-02-11T05:48:10.945Z,31.50
2018-02-11T05:49:16.471Z,32.70
2018-02-11T05:50:22.005Z,29.90
2018-02-11T05:51:27.530Z,27.50
2018-02-11T05:52:33.057Z,30.30
2018-02-11T05:53:38.589Z,31.10
2018-02-11T05:54:44.114Z,31.60
2018-02-11T05:55:49.648Z,30.30
2018-02-11T05:56:55.178Z,29.60
2018-02-11T05:58:00.708Z,32.90
2018-02-11T05:59:06.232Z,31.50
2018-02-11T06:00:11.766Z,31.30
2018-02-11T06:01:17.291Z,31.80
2018-02-11T06:02:22.817Z,31.10
2018-02-11T06:03:28.353Z,33.20
2018-02-11T06:04:33.882Z,31.50
2018-02-11T06:05:39.413Z,31.60
2018-02-11T06:06:44.932Z,32.30
2018-02-11T06:07:50.463Z,31.80
2018-02-11T06:08:55.994Z,34.20
2018-02-11T06:10:01.517Z,29.90
2018-02-11T06:11:07.048Z,28.80
2018-02-11T06:12:12.583Z,27.30
2018-02-11T06:13:18.105Z,31.90
2018-02-11T06:14:23.635Z,28.70
2018-02-11T06:15:29.168Z,32.40
2018-02-11T06:16:34.698Z,27.10
2018-02-11T06:17:40.225Z,32.10
2018-02-11T06:18:45.752Z,28.60
2018-02-11T06:19:51.280Z,30.40
2018-02-11T06:20:56.809Z,36.40
2018-02-11T06:22:02.339Z,29.70
2018-02-11T06:23:07.865Z,33.30
2018-02-11T06:24:13.421Z,31.80
2018-02-11T06:25:18.923Z,30.30
2018-02-11T06:26:24.453Z,29.50
2018-02-11T06:27:29.985Z,30.10
2018-02-11T06:28:35.515Z,29.30
2018-02-11T06:29:41.044Z,27.70
2018-02-11T06:30:46.570Z,34.60
2018-02-11T06:31:52.098Z,34.00
2018-02-11T06:32:57.627Z,36.50
2018-02-11T06:34:03.155Z,34.00
2018-02-11T06:35:08.683Z,32.50
2018-02-11T06:36:14.212Z,33.20
2018-02-11T06:37:19.738Z,31.90
2018-02-11T06:38:25.273Z,28.30
2018-02-11T06:39:30.802Z,32.40
2018-02-11T06:40:36.327Z,30.10
2018-02-11T06:41:41.860Z,28.50
2018-02-11T06:42:47.385Z,34.40
2018-02-11T06:43:52.913Z,30.80
2018-02-11T06:44:58.442Z,30.00
2018-02-11T06:46:03.972Z,28.20
2018-02-11T06:47:09.498Z,32.30
2018-02-11T06:48:15.034Z,31.20
2018-02-11T06:49:20.559Z,28.60
2018-02-11T06:50:26.091Z,27.50
2018-02-11T06:51:31.615Z,34.50
2018-02-11T06:52:37.142Z,39.90
2018-02-11T06:53:42.711Z,34.30
2018-02-11T06:54:48.209Z,28.30
2018-02-11T06:55:53.732Z,28.30
2018-02-11T06:56:59.258Z,30.60
2018-02-11T06:58:04.791Z,30.60
2018-02-11T06:59:10.322Z,27.10
2018-02-11T07:00:15.880Z,27.70
2018-02-11T07:01:21.378Z,29.20
2018-02-11T07:02:26.901Z,29.60
2018-02-11T07:03:32.437Z,27.60
2018-02-11T07:04:37.963Z,26.10
2018-02-11T07:05:43.492Z,27.40
2018-02-11T07:06:49.025Z,27.80
2018-02-11T07:07:54.547Z,27.50
2018-02-11T07:09:00.084Z,28.30
2018-02-11T07:10:05.617Z,30.00
2018-02-11T07:11:11.132Z,26.80
2018-02-11T07:12:16.672Z,30.70
2018-02-11T07:13:22.195Z,26.00
2018-02-11T07:14:27.732Z,28.80
2018-02-11T07:15:33.256Z,24.50
2018-02-11T07:16:38.784Z,26.10
2018-02-11T07:17:44.317Z,29.90
2018-02-11T07:18:49.835Z,26.60
2018-02-11T07:19:55.365Z,26.30
2018-02-11T07:21:00.895Z,23.40
2018-02-11T07:22:06.483Z,27.10
2018-02-11T07:23:11.965Z,23.10
2018-02-11T07:24:17.484Z,23.00
2018-02-11T07:25:23.015Z,27.10
2018-02-11T07:26:28.541Z,24.40
2018-02-11T07:27:34.078Z,22.60
2018-02-11T07:28:39.596Z,27.30
2018-02-11T07:29:45.134Z,27.90
2018-02-11T07:30:50.662Z,28.50
2018-02-11T07:31:56.185Z,28.00
2018-02-11T07:33:01.715Z,28.00
2018-02-11T07:34:07.242Z,27.40
2018-02-11T07:35:12.773Z,27.10
2018-02-11T07:36:18.303Z,26.00
2018-02-11T07:37:23.828Z,25.40
2018-02-11T07:38:29.364Z,26.80
2018-02-11T07:39:34.887Z,24.70
2018-02-11T07:40:40.417Z,21.80
2018-02-11T07:41:45.948Z,22.80
2018-02-11T07:42:51.476Z,24.40
2018-02-11T07:43:57.000Z,29.70
2018-02-11T07:45:02.533Z,24.70
2018-02-11T07:46:08.063Z,25.30
2018-02-11T07:47:13.596Z,26.00
2018-02-11T07:48:19.122Z,24.10
2018-02-11T07:49:24.652Z,24.50
2018-02-11T07:50:30.181Z,27.30
2018-02-11T07:51:35.791Z,26.10
2018-02-11T07:52:41.243Z,29.40
2018-02-11T07:53:46.771Z,24.50
2018-02-11T07:54:52.300Z,24.20
2018-02-11T07:55:57.821Z,23.90
2018-02-11T07:57:03.350Z,26.30
2018-02-11T07:58:08.882Z,24.30
2018-02-11T07:59:14.419Z,23.50
2018-02-11T08:00:19.942Z,22.20
2018-02-11T08:01:25.475Z,23.80
2018-02-11T08:02:30.995Z,19.80
2018-02-11T08:03:36.525Z,22.10
2018-02-11T08:04:42.056Z,23.90
2018-02-11T08:05:47.586Z,23.00
2018-02-11T08:06:53.116Z,22.60
2018-02-11T08:07:58.643Z,23.60
2018-02-11T08:09:04.262Z,24.40
2018-02-11T08:10:09.704Z,23.50
2018-02-11T08:11:15.231Z,22.60
2018-02-11T08:12:20.758Z,21.30
2018-02-11T08:13:26.287Z,24.30
2018-02-11T08:14:31.816Z,27.20
2018-02-11T08:15:37.345Z,24.20
2018-02-11T08:16:42.991Z,24.00
2018-02-11T08:17:48.420Z,22.60
2018-02-11T08:18:53.942Z,22.70
2018-02-11T08:19:59.456Z,21.50
2018-02-11T08:21:04.988Z,24.90
2018-02-11T08:22:10.517Z,21.70
2018-02-11T08:23:16.055Z,23.50
2018-02-11T08:24:21.577Z,22.60
2018-02-11T08:25:27.105Z,23.90
2018-02-11T08:26:32.637Z,21.70
2018-02-11T08:27:38.163Z,24.00
2018-02-11T08:28:43.700Z,25.40
2018-02-11T08:29:49.226Z,22.80
2018-02-11T08:30:54.751Z,22.40
2018-02-11T08:32:00.282Z,26.10
2018-02-11T08:33:05.820Z,22.10
2018-02-11T08:34:11.341Z,24.20
2018-02-11T08:35:16.872Z,23.70
2018-02-11T08:36:22.398Z,22.10
2018-02-11T08:37:27.924Z,20.70
2018-02-11T08:38:33.452Z,24.90
2018-02-11T08:39:38.989Z,23.40
2018-02-11T08:42:16.196Z,24.70
2018-02-11T08:43:21.707Z,24.30
2018-02-11T08:44:27.238Z,25.90
2018-02-11T08:45:32.761Z,22.50
2018-02-11T08:46:38.291Z,22.60
2018-02-11T08:47:43.820Z,24.70
2018-02-11T08:48:49.352Z,23.80
2018-02-11T08:49:54.886Z,22.30
2018-02-11T08:51:00.402Z,20.10
2018-02-11T08:52:05.931Z,23.20
2018-02-11T08:53:11.457Z,22.40
2018-02-11T08:54:16.985Z,25.10
2018-02-11T08:55:22.513Z,22.70
2018-02-11T08:56:28.052Z,20.80
2018-02-11T08:57:33.574Z,21.80
2018-02-11T08:58:39.105Z,21.60
2018-02-11T08:59:44.640Z,18.10
2018-02-11T09:00:50.155Z,19.60
2018-02-11T09:01:55.681Z,20.40
2018-02-11T09:03:01.210Z,20.90
2018-02-11T09:04:06.782Z,18.70
2018-02-11T09:05:12.267Z,17.70
2018-02-11T09:06:17.793Z,16.70
2018-02-11T09:07:23.331Z,19.20
2018-02-11T09:08:28.856Z,19.40
2018-02-11T09:09:34.380Z,19.00
2018-02-11T09:10:39.907Z,19.30
2018-02-11T09:11:45.437Z,18.20
2018-02-11T09:12:51.015Z,18.10
2018-02-11T09:13:56.496Z,17.50
2018-02-11T09:15:02.029Z,15.50
2018-02-11T09:16:07.560Z,16.50
2018-02-11T09:17:13.089Z,21.10
2018-02-11T09:18:18.615Z,17.70
2018-02-11T09:19:24.143Z,20.90
2018-02-11T09:20:29.669Z,19.40
2018-02-11T09:21:35.206Z,17.70
2018-02-11T09:22:40.725Z,16.60
2018-02-11T09:23:46.257Z,18.70
2018-02-11T09:24:51.785Z,14.80
2018-02-11T09:25:57.314Z,13.70
2018-02-11T09:27:02.845Z,15.60
2018-02-11T09:28:08.383Z,13.40
2018-02-11T09:29:13.902Z,13.10
2018-02-11T09:30:19.432Z,15.50
2018-02-11T09:31:24.960Z,16.90
2018-02-11T09:32:30.518Z,12.90
2018-02-11T09:33:36.022Z,12.90
2018-02-11T09:34:41.582Z,16.30
2018-02-11T09:35:47.078Z,11.90
2018-02-11T09:36:52.610Z,14.20
2018-02-11T09:37:58.144Z,15.60
2018-02-11T09:39:03.668Z,16.60
2018-02-11T09:40:09.197Z,13.00
2018-02-11T09:41:14.732Z,14.10
2018-02-11T09:42:20.284Z,13.10
2018-02-11T09:43:25.794Z,12.90
2018-02-11T09:44:31.315Z,13.30
2018-02-11T09:45:36.847Z,19.70
2018-02-11T09:46:42.372Z,12.50
2018-02-11T09:47:47.901Z,13.60
2018-02-11T09:48:53.436Z,13.30
2018-02-11T09:49:58.967Z,13.10
2018-02-11T09:51:04.492Z,12.50
2018-02-11T09:52:10.020Z,13.40
2018-02-11T09:53:15.549Z,13.10
2018-02-11T09:54:21.076Z,12.20
2018-02-11T09:55:26.613Z,13.00
2018-02-11T09:56:32.144Z,11.60
2018-02-11T09:57:37.668Z,12.10
2018-02-11T09:58:43.197Z,11.40
2018-02-11T09:59:48.734Z,11.00
2018-02-11T10:00:54.260Z,9.70
2018-02-11T10:01:59.783Z,15.70
2018-02-11T10:03:05.312Z,14.10
2018-02-11T10:04:10.847Z,11.80
2018-02-11T10:05:16.377Z,13.20
2018-02-11T10:06:21.911Z,13.60
2018-02-11T10:07:27.431Z,10.90
2018-02-11T10:08:32.999Z,10.50
2018-02-11T10:09:38.494Z,10.00
2018-02-11T10:10:44.070Z,14.00
2018-02-11T10:11:49.558Z,12.20
2018-02-11T10:12:55.082Z,10.00
2018-02-11T10:14:00.610Z,8.80
2018-02-11T10:15:06.143Z,11.20
2018-02-11T10:16:11.670Z,12.10
2018-02-11T10:17:17.202Z,14.90
2018-02-11T10:18:22.733Z,12.60
2018-02-11T10:19:28.258Z,11.40
2018-02-11T10:20:33.799Z,12.20
2018-02-11T10:21:39.324Z,10.40
2018-02-11T10:22:44.847Z,11.60
2018-02-11T10:23:50.383Z,9.40
2018-02-11T10:24:55.908Z,9.30
2018-02-11T10:26:01.442Z,8.20
2018-02-11T10:27:06.969Z,8.10
2018-02-11T10:28:12.502Z,9.60
2018-02-11T10:29:18.028Z,8.70
2018-02-11T10:30:23.558Z,7.50
2018-02-11T10:31:29.087Z,8.80
2018-02-11T10:32:34.613Z,7.20
2018-02-11T10:33:40.142Z,8.90
2018-02-11T10:34:45.673Z,9.40
2018-02-11T10:35:51.204Z,6.80
2018-02-11T10:36:56.734Z,7.70
2018-02-11T10:38:02.265Z,8.10
2018-02-11T10:39:07.791Z,9.90
2018-02-11T10:40:13.325Z,8.10
2018-02-11T10:41:18.864Z,8.60
2018-02-11T10:42:24.382Z,8.50
2018-02-11T10:43:29.915Z,9.30
2018-02-11T10:44:35.437Z,8.90
2018-02-11T10:45:40.968Z,8.30
2018-02-11T10:46:46.505Z,7.90
2018-02-11T10:47:52.039Z,7.70
2018-02-11T10:48:57.558Z,7.40
2018-02-11T10:50:03.089Z,6.80
2018-02-11T10:51:08.619Z,7.60
2018-02-11T10:52:14.147Z,9.20
2018-02-11T10:53:19.679Z,7.40
2018-02-11T10:54:25.250Z,8.50
2018-02-11T10:55:30.740Z,7.70
2018-02-11T10:56:36.263Z,8.80
2018-02-11T10:57:41.801Z,9.80
2018-02-11T10:58:47.324Z,7.00
2018-02-11T10:59:52.857Z,8.00
2018-02-11T11:00:58.390Z,8.60
2018-02-11T11:02:03.919Z,7.70
2018-02-11T11:03:09.447Z,7.70
2018-02-11T11:04:14.974Z,8.20
2018-02-11T11:05:20.539Z,8.70
2018-02-11T11:06:26.034Z,10.60
2018-02-11T11:07:31.585Z,7.40
2018-02-11T11:08:37.095Z,7.10
2018-02-11T11:09:42.643Z,8.00
2018-02-11T11:10:48.148Z,8.00
2018-02-11T11:11:53.679Z,7.80
2018-02-11T11:12:59.207Z,7.30
2018-02-11T11:14:04.744Z,7.40
2018-02-11T11:15:10.293Z,9.00
2018-02-11T11:16:15.802Z,7.90
2018-02-11T11:17:21.328Z,8.40
2018-02-11T11:18:26.859Z,7.90
2018-02-11T11:19:32.394Z,8.70
2018-02-11T11:20:37.919Z,9.50
2018-02-11T11:21:43.447Z,6.30
2018-02-11T11:22:48.980Z,7.80
2018-02-11T11:23:54.506Z,11.70
2018-02-11T11:25:00.056Z,6.30
2018-02-11T11:26:05.570Z,8.80
2018-02-11T11:27:11.101Z,6.10
2018-02-11T11:28:16.639Z,8.40
2018-02-11T11:29:22.155Z,8.00
2018-02-11T11:30:27.696Z,8.00
2018-02-11T11:31:33.220Z,7.90
2018-02-11T11:32:38.746Z,8.20
2018-02-11T11:33:44.278Z,7.50
2018-02-11T11:34:49.813Z,6.70
2018-02-11T11:37:27.036Z,8.00
2018-02-11T11:38:32.551Z,6.30
2018-02-11T11:39:38.071Z,7.10
2018-02-11T11:40:43.602Z,7.30
2018-02-11T11:41:49.132Z,6.60
2018-02-11T11:42:54.659Z,7.30
2018-02-11T11:44:00.191Z,6.70
2018-02-11T11:45:05.721Z,9.30
2018-02-11T11:46:11.248Z,7.30
2018-02-11T11:47:16.779Z,9.50
2018-02-11T11:48:22.307Z,9.40
2018-02-11T11:49:27.833Z,8.00
2018-02-11T11:50:33.360Z,8.10
2018-02-11T11:51:38.893Z,8.40
2018-02-11T11:52:44.430Z,7.80
2018-02-11T11:53:49.952Z,6.70
2018-02-11T11:54:55.494Z,6.50
2018-02-11T11:56:01.011Z,7.60
2018-02-11T11:57:06.539Z,8.80
2018-02-11T11:58:12.068Z,11.30
2018-02-11T11:59:17.601Z,17.30
2018-02-11T12:00:23.138Z,7.30
2018-02-11T12:01:28.657Z,7.30
2018-02-11T12:02:34.195Z,7.90
2018-02-11T12:03:39.714Z,6.60
2018-02-11T12:04:45.242Z,6.60
2018-02-11T12:05:50.774Z,9.10
2018-02-11T12:06:56.314Z,9.80
2018-02-11T12:08:01.828Z,7.90
2018-02-11T12:09:07.362Z,8.50
2018-02-11T12:10:12.891Z,9.90
2018-02-11T12:11:18.420Z,7.50
2018-02-11T12:12:23.955Z,6.80
2018-02-11T12:13:29.483Z,6.70
2018-02-11T12:14:35.015Z,8.60
2018-02-11T12:15:40.542Z,7.80
2018-02-11T12:16:46.071Z,7.30
2018-02-11T12:17:51.603Z,9.90
2018-02-11T12:18:57.127Z,7.80
2018-02-11T12:20:02.662Z,7.80
2018-02-11T12:21:08.190Z,6.50
2018-02-11T12:22:13.722Z,8.80
2018-02-11T12:23:19.254Z,7.20
2018-02-11T12:24:24.782Z,8.90
2018-02-11T12:25:30.312Z,9.10
2018-02-11T12:26:35.847Z,11.00
2018-02-11T12:27:41.375Z,7.40
2018-02-11T12:28:46.903Z,7.50
2018-02-11T12:29:52.432Z,11.90
2018-02-11T12:30:57.974Z,9.00
2018-02-11T12:32:03.533Z,6.40
2018-02-11T12:33:09.025Z,7.50
2018-02-11T12:34:14.554Z,7.40
2018-02-11T12:35:20.084Z,6.60
2018-02-11T12:36:25.617Z,6.90
2018-02-11T12:37:31.148Z,7.10
2018-02-11T12:38:36.676Z,10.60
2018-02-11T12:39:42.208Z,7.50
2018-02-11T12:40:47.740Z,7.50
2018-02-11T12:41:53.271Z,9.20
2018-02-11T12:42:58.796Z,6.80
2018-02-11T12:44:04.333Z,6.20
2018-02-11T12:45:09.958Z,6.00
2018-02-11T12:46:15.392Z,7.70
2018-02-11T12:47:20.918Z,7.90
2018-02-11T12:48:26.684Z,8.70
2018-02-11T12:49:31.983Z,7.70
2018-02-11T12:50:37.510Z,6.90
2018-02-11T12:51:43.050Z,6.60
2018-02-11T12:52:48.579Z,10.20
2018-02-11T12:53:54.103Z,8.60
2018-02-11T12:54:59.637Z,12.30
2018-02-11T12:56:05.204Z,8.50
2018-02-11T12:57:10.700Z,7.80
2018-02-11T12:58:16.229Z,8.80
2018-02-11T12:59:21.757Z,9.90
2018-02-11T13:00:27.291Z,7.00
2018-02-11T13:01:32.821Z,7.10
2018-02-11T13:02:38.353Z,7.70
2018-02-11T13:03:43.887Z,13.50
2018-02-11T13:04:49.413Z,7.50
2018-02-11T13:05:54.953Z,8.30
2018-02-11T13:07:00.475Z,8.30
2018-02-11T13:08:06.016Z,6.50
2018-02-11T13:09:11.542Z,7.50
2018-02-11T13:10:17.070Z,8.10
2018-02-11T13:11:22.598Z,8.20
2018-02-11T13:12:28.130Z,10.70
2018-02-11T13:13:33.663Z,8.90
2018-02-11T13:14:39.188Z,8.60
2018-02-11T13:15:44.723Z,7.80
2018-02-11T13:16:50.254Z,8.60
2018-02-11T13:17:55.783Z,9.40
2018-02-11T13:19:01.318Z,6.20
2018-02-11T13:20:06.844Z,7.50
2018-02-11T13:21:12.376Z,9.10
2018-02-11T13:22:17.915Z,6.00
2018-02-11T13:23:23.440Z,6.90
2018-02-11T13:24:28.975Z,7.80
2018-02-11T13:25:34.502Z,6.80
2018-02-11T13:26:40.036Z,7.30
2018-02-11T13:27:45.559Z,7.70
2018-02-11T13:28:51.090Z,6.70
2018-02-11T13:29:56.624Z,6.00
2018-02-11T13:31:02.154Z,7.10
2018-02-11T13:32:07.683Z,8.10
2018-02-11T13:33:13.209Z,7.60
2018-02-11T13:34:18.745Z,7.10
2018-02-11T13:35:24.274Z,6.60
2018-02-11T13:36:29.806Z,8.40
2018-02-11T13:37:35.338Z,5.90
2018-02-11T13:38:40.866Z,5.40
2018-02-11T13:39:46.399Z,5.90
2018-02-11T13:40:51.932Z,8.00
2018-02-11T13:41:57.466Z,6.60
2018-02-11T13:43:03.001Z,9.20
2018-02-11T13:44:08.516Z,4.90
2018-02-11T13:45:14.052Z,6.40
2018-02-11T13:46:19.588Z,6.20
2018-02-11T13:47:25.109Z,7.40
2018-02-11T13:48:30.648Z,6.20
2018-02-11T13:49:36.177Z,5.60
2018-02-11T13:50:41.714Z,7.00
2018-02-11T13:51:47.242Z,5.60
2018-02-11T13:52:52.766Z,6.50
2018-02-11T13:53:58.303Z,7.50
2018-02-11T13:55:03.832Z,6.70
2018-02-11T13:56:09.364Z,7.20
2018-02-11T13:57:14.893Z,7.70
2018-02-11T13:58:20.424Z,5.30
2018-02-11T13:59:25.955Z,7.30
2018-02-11T14:00:31.483Z,11.80
2018-02-11T14:01:37.021Z,4.80
2018-02-11T14:02:42.543Z,6.40
2018-02-11T14:03:48.083Z,6.60
2018-02-11T14:04:53.607Z,6.40
2018-02-11T14:05:59.142Z,6.90
2018-02-11T14:07:04.673Z,7.30
2018-02-11T14:08:10.204Z,7.30
2018-02-11T14:09:15.736Z,5.60
2018-02-11T14:10:21.263Z,6.50
2018-02-11T14:11:26.791Z,7.30
2018-02-11T14:12:32.321Z,6.40
2018-02-11T14:13:37.854Z,6.90
2018-02-11T14:14:43.387Z,8.50